createdAt,value
2023-04-30T00:00:08.087Z,91.69
2023-04-30T00:02:35.436Z,92.03
2023-04-30T00:05:02.694Z,92.31
2023-04-30T00:07:29.947Z,92.58
2023-04-30T00:09:57.224Z,92.75
2023-04-30T00:12:24.305Z,92.67
2023-04-30T00:14:51.619Z,92.84
2023-04-30T00:17:18.459Z,92.61
2023-04-30T00:19:45.570Z,92.45
2023-04-30T00:22:12.712Z,92.37
2023-04-30T00:24:39.556Z,92.68
2023-04-30T00:27:06.417Z,92.84
2023-04-30T00:29:33.270Z,92.94
2023-04-30T00:32:00.468Z,93.35
2023-04-30T00:34:27.474Z,93.22
2023-04-30T00:36:54.370Z,93.21
2023-04-30T00:39:21.658Z,93.46
2023-04-30T00:41:48.560Z,93.82
2023-04-30T00:44:15.666Z,94.04
2023-04-30T00:46:42.576Z,94.00
2023-04-30T00:49:10.439Z,94.10
2023-04-30T00:51:40.882Z,94.35
2023-04-30T00:54:08.798Z,94.99
2023-04-30T00:56:36.381Z,94.62
2023-04-30T00:59:03.483Z,94.67
2023-04-30T01:01:30.900Z,94.73
2023-04-30T01:03:57.977Z,94.59
2023-04-30T01:06:26.990Z,94.81
2023-04-30T01:08:54.488Z,94.41
2023-04-30T01:11:46.131Z,94.32
2023-04-30T01:14:58.876Z,94.82
2023-04-30T01:17:46.004Z,94.84
2023-04-30T01:20:13.538Z,94.78
2023-04-30T01:23:06.527Z,94.72
2023-04-30T01:25:52.444Z,94.40
2023-04-30T01:28:20.702Z,94.45
2023-04-30T01:30:47.994Z,93.85
2023-04-30T01:33:15.099Z,93.82
2023-04-30T01:35:52.495Z,93.91
2023-04-30T01:38:37.839Z,94.14
2023-04-30T01:41:32.214Z,94.35
2023-04-30T01:44:14.128Z,94.37
2023-04-30T01:46:44.160Z,94.24
2023-04-30T01:49:27.326Z,94.54
2023-04-30T01:52:07.182Z,94.39
2023-04-30T01:54:51.638Z,94.12
2023-04-30T01:57:29.606Z,94.31
2023-04-30T01:59:57.212Z,94.40
2023-04-30T02:02:24.259Z,94.71
2023-04-30T02:04:51.790Z,94.74
2023-04-30T02:07:38.130Z,94.72
2023-04-30T02:10:07.030Z,94.72
2023-04-30T02:12:37.133Z,95.17
2023-04-30T02:15:05.759Z,95.59
2023-04-30T02:17:32.993Z,95.33
2023-04-30T02:20:00.296Z,95.09
2023-04-30T02:22:27.382Z,95.50
2023-04-30T02:24:55.796Z,95.51
2023-04-30T02:27:26.159Z,95.63
2023-04-30T02:29:54.381Z,95.69
2023-04-30T02:32:21.845Z,96.08
2023-04-30T02:34:48.837Z,95.58
2023-04-30T02:37:16.076Z,95.49
2023-04-30T02:39:43.128Z,95.67
2023-04-30T02:42:10.132Z,95.66
2023-04-30T02:44:37.073Z,96.23
2023-04-30T02:47:04.042Z,96.12
2023-04-30T02:49:30.915Z,96.37
2023-04-30T02:51:58.222Z,96.13
2023-04-30T02:54:25.161Z,96.43
2023-04-30T02:56:52.082Z,96.41
2023-04-30T02:59:19.222Z,96.24
2023-04-30T03:01:46.219Z,96.18
2023-04-30T03:04:13.468Z,96.11
2023-04-30T03:06:40.368Z,96.36
2023-04-30T03:09:07.443Z,96.62
2023-04-30T03:11:37.543Z,96.90
2023-04-30T03:14:07.802Z,97.21
2023-04-30T03:16:34.849Z,97.78
2023-04-30T03:19:02.034Z,97.79
2023-04-30T03:21:29.286Z,97.47
2023-04-30T03:23:56.283Z,97.59
2023-04-30T03:26:23.218Z,98.57
2023-04-30T03:28:50.227Z,98.68
2023-04-30T03:31:17.279Z,99.02
2023-04-30T03:33:44.341Z,99.11
2023-04-30T03:36:11.840Z,99.55
2023-04-30T03:38:38.789Z,99.18
2023-04-30T03:41:06.026Z,99.42
2023-04-30T03:43:33.290Z,100.00
2023-04-30T03:46:00.331Z,100.00
2023-04-30T03:48:27.289Z,100.00
2023-04-30T03:50:54.255Z,99.94
2023-04-30T03:53:21.319Z,99.94
2023-04-30T03:55:50.094Z,99.55
2023-04-30T03:58:17.179Z,99.28
2023-04-30T04:00:45.875Z,99.70
2023-04-30T04:03:13.382Z,99.68
2023-04-30T04:05:40.480Z,99.14
2023-04-30T04:08:07.637Z,99.96
2023-04-30T04:10:39.208Z,100.00
2023-04-30T04:13:06.932Z,99.78
2023-04-30T04:15:34.487Z,99.50
2023-04-30T04:18:01.501Z,100.00
2023-04-30T04:20:30.032Z,99.87
2023-04-30T04:22:57.337Z,100.00
2023-04-30T04:25:28.703Z,100.00
2023-04-30T04:27:55.707Z,100.00
2023-04-30T04:30:22.661Z,99.59
2023-04-30T04:32:54.014Z,99.52
2023-04-30T04:35:21.457Z,99.91
2023-04-30T04:37:48.629Z,99.99
2023-04-30T04:40:15.500Z,100.00
2023-04-30T04:42:42.394Z,100.00
2023-04-30T04:45:10.073Z,100.00
2023-04-30T04:47:37.813Z,100.00
2023-04-30T04:50:05.097Z,100.00
2023-04-30T04:52:32.186Z,100.00
2023-04-30T04:54:58.991Z,100.00
2023-04-30T04:57:25.930Z,98.84
2023-04-30T04:59:54.281Z,97.77
2023-04-30T05:02:23.490Z,96.84
2023-04-30T05:04:51.163Z,96.32
2023-04-30T05:07:18.383Z,95.99
2023-04-30T05:09:46.986Z,95.00
2023-04-30T05:12:14.750Z,95.12
2023-04-30T05:14:41.675Z,94.81
2023-04-30T05:17:08.832Z,94.79
2023-04-30T05:19:35.983Z,94.87
2023-04-30T05:22:02.974Z,94.26
2023-04-30T05:24:29.921Z,93.91
2023-04-30T05:26:56.945Z,93.84
2023-04-30T05:29:23.986Z,93.25
2023-04-30T05:31:50.947Z,92.51
2023-04-30T05:34:17.911Z,92.19
2023-04-30T05:36:45.621Z,91.77
2023-04-30T05:39:12.591Z,91.56
2023-04-30T05:41:39.527Z,91.35
2023-04-30T05:44:07.023Z,89.51
2023-04-30T05:46:35.603Z,89.26
2023-04-30T05:49:02.893Z,88.25
2023-04-30T05:51:29.822Z,88.64
2023-04-30T05:53:57.625Z,88.36
2023-04-30T05:56:25.192Z,88.99
2023-04-30T05:58:52.762Z,87.95
2023-04-30T06:01:21.207Z,87.07
2023-04-30T06:03:49.010Z,86.05
2023-04-30T06:06:16.193Z,85.81
2023-04-30T06:08:45.361Z,84.37
2023-04-30T06:11:13.782Z,83.64
2023-04-30T06:13:41.022Z,83.63
2023-04-30T06:16:08.564Z,81.39
2023-04-30T06:18:35.801Z,80.69
2023-04-30T06:21:02.751Z,80.62
2023-04-30T06:23:29.806Z,79.99
2023-04-30T06:25:56.787Z,80.17
2023-04-30T06:28:23.786Z,80.32
2023-04-30T06:30:51.883Z,80.64
2023-04-30T06:33:19.017Z,80.57
2023-04-30T06:35:46.549Z,79.30
2023-04-30T06:38:14.313Z,78.54
2023-04-30T06:40:41.279Z,78.93
2023-04-30T06:43:08.345Z,79.43
2023-04-30T06:45:35.628Z,77.30
2023-04-30T06:48:02.675Z,76.65
2023-04-30T06:50:29.736Z,77.05
2023-04-30T06:52:56.886Z,77.03
2023-04-30T06:55:24.704Z,75.64
2023-04-30T06:57:51.896Z,76.36
2023-04-30T07:00:18.981Z,76.65
2023-04-30T07:02:48.016Z,75.22
2023-04-30T07:05:16.218Z,73.82
2023-04-30T07:07:43.357Z,73.43
2023-04-30T07:10:10.646Z,75.21
2023-04-30T07:12:37.671Z,72.71
2023-04-30T07:15:04.993Z,71.84
2023-04-30T07:17:31.951Z,71.54
2023-04-30T07:19:59.227Z,72.37
2023-04-30T07:22:26.237Z,72.12
2023-04-30T07:24:53.069Z,72.06
2023-04-30T07:27:19.914Z,71.63
2023-04-30T07:29:46.980Z,70.50
2023-04-30T07:32:15.015Z,69.95
2023-04-30T07:34:42.326Z,69.48
2023-04-30T07:37:09.771Z,70.21
2023-04-30T07:39:39.689Z,69.22
2023-04-30T07:42:07.109Z,70.05
2023-04-30T07:44:33.957Z,68.77
2023-04-30T07:47:00.857Z,68.62
2023-04-30T07:49:28.911Z,69.13
2023-04-30T07:51:56.480Z,68.74
2023-04-30T07:54:23.677Z,67.53
2023-04-30T07:56:50.700Z,68.61
2023-04-30T07:59:17.776Z,65.91
2023-04-30T08:01:45.094Z,65.96
2023-04-30T08:04:12.514Z,65.54
2023-04-30T08:06:39.825Z,64.69
2023-04-30T08:09:06.748Z,63.74
2023-04-30T08:11:34.694Z,63.98
2023-04-30T08:14:01.666Z,62.78
2023-04-30T08:16:28.772Z,62.69
2023-04-30T08:18:56.201Z,60.91
2023-04-30T08:21:23.254Z,61.87
2023-04-30T08:23:50.799Z,60.31
2023-04-30T08:26:17.888Z,59.82
2023-04-30T08:28:44.837Z,58.42
2023-04-30T08:31:12.831Z,58.57
2023-04-30T08:33:41.162Z,59.85
2023-04-30T08:36:08.193Z,59.04
2023-04-30T08:38:35.395Z,55.55
2023-04-30T08:41:10.311Z,53.32
2023-04-30T08:43:37.643Z,55.22
2023-04-30T08:46:06.305Z,55.50
2023-04-30T08:48:33.583Z,54.49
2023-04-30T08:51:04.695Z,52.10
2023-04-30T08:53:34.703Z,48.97
2023-04-30T08:56:01.965Z,48.10
2023-04-30T08:58:28.950Z,47.45
2023-04-30T09:00:59.581Z,47.62
2023-04-30T09:03:27.722Z,47.07
2023-04-30T09:05:56.071Z,45.14
2023-04-30T09:09:12.617Z,44.12
2023-04-30T09:11:39.822Z,43.66
2023-04-30T09:14:06.835Z,43.84
2023-04-30T09:16:48.713Z,45.73
2023-04-30T09:19:29.591Z,45.70
2023-04-30T09:21:57.781Z,47.51
2023-04-30T09:24:25.442Z,48.20
2023-04-30T09:26:54.053Z,48.82
2023-04-30T09:29:20.994Z,49.71
2023-04-30T09:31:48.199Z,51.09
2023-04-30T09:34:15.433Z,49.76
2023-04-30T09:36:55.229Z,50.04
2023-04-30T09:39:22.978Z,49.42
2023-04-30T09:41:51.927Z,50.15
2023-04-30T09:44:36.770Z,48.80
2023-04-30T09:47:04.847Z,49.64
2023-04-30T09:49:32.173Z,49.13
2023-04-30T09:52:01.305Z,50.34
2023-04-30T09:54:30.624Z,50.14
2023-04-30T09:56:59.666Z,47.30
2023-04-30T09:59:40.898Z,43.07
2023-04-30T10:02:08.611Z,41.47
2023-04-30T10:04:41.944Z,43.34
2023-04-30T10:07:15.747Z,44.11
2023-04-30T10:09:51.651Z,45.67
2023-04-30T10:12:32.561Z,47.39
2023-04-30T10:15:10.736Z,48.58
2023-04-30T10:17:44.255Z,47.84
2023-04-30T10:20:12.964Z,48.31
2023-04-30T10:22:41.869Z,49.34
2023-04-30T10:25:13.517Z,49.67
2023-04-30T10:27:40.420Z,49.02
2023-04-30T10:30:11.576Z,47.39
2023-04-30T10:32:51.291Z,47.13
2023-04-30T10:35:28.730Z,47.34
2023-04-30T10:38:04.668Z,45.49
2023-04-30T10:40:37.245Z,42.78
2023-04-30T10:43:04.398Z,38.65
2023-04-30T10:45:37.206Z,37.27
2023-04-30T10:48:05.023Z,35.26
2023-04-30T10:50:32.295Z,34.81
2023-04-30T10:53:03.858Z,36.29
2023-04-30T10:55:31.531Z,37.40
2023-04-30T10:57:59.381Z,38.72
2023-04-30T11:00:29.444Z,39.42
2023-04-30T11:02:58.642Z,40.95
2023-04-30T11:05:39.957Z,41.20
2023-04-30T11:08:11.816Z,42.62
2023-04-30T11:10:56.730Z,42.15
2023-04-30T11:13:26.527Z,43.97
2023-04-30T11:15:53.849Z,43.48
2023-04-30T11:18:20.882Z,40.43
2023-04-30T11:20:54.991Z,37.75
2023-04-30T11:23:38.826Z,38.01
2023-04-30T11:26:08.952Z,38.45
2023-04-30T11:28:38.050Z,40.60
2023-04-30T11:31:05.954Z,41.70
2023-04-30T11:33:33.925Z,39.69
2023-04-30T11:36:02.042Z,38.89
2023-04-30T11:38:36.924Z,37.44
2023-04-30T11:41:05.297Z,35.44
2023-04-30T11:43:34.158Z,34.82
2023-04-30T11:46:12.257Z,35.14
2023-04-30T11:48:42.336Z,35.57
2023-04-30T11:51:26.966Z,37.66
2023-04-30T11:53:54.217Z,39.45
2023-04-30T11:56:25.709Z,40.65
2023-04-30T11:58:55.968Z,41.30
2023-04-30T12:01:27.690Z,42.08
2023-04-30T12:03:56.389Z,41.81
2023-04-30T12:06:26.416Z,41.43
2023-04-30T12:08:55.213Z,40.31
2023-04-30T12:11:29.834Z,37.92
2023-04-30T12:13:56.821Z,34.64
2023-04-30T12:16:28.721Z,34.91
2023-04-30T12:18:56.087Z,34.02
2023-04-30T12:21:23.841Z,33.27
2023-04-30T12:23:50.930Z,33.21
2023-04-30T12:26:17.953Z,31.65
2023-04-30T12:28:48.627Z,30.60
2023-04-30T12:31:18.928Z,30.65
2023-04-30T12:33:54.213Z,30.97
2023-04-30T12:36:21.347Z,30.54
2023-04-30T12:38:48.632Z,30.54
2023-04-30T12:41:17.665Z,30.80
2023-04-30T12:43:44.952Z,30.55
2023-04-30T12:46:12.572Z,29.44
2023-04-30T12:48:47.524Z,30.43
2023-04-30T12:51:20.190Z,30.84
2023-04-30T12:53:47.774Z,29.07
2023-04-30T12:56:17.098Z,29.75
2023-04-30T12:58:48.541Z,29.97
2023-04-30T13:01:25.816Z,29.85
2023-04-30T13:03:53.941Z,29.60
2023-04-30T13:06:23.086Z,29.86
2023-04-30T13:08:58.639Z,29.64
2023-04-30T13:11:27.176Z,29.48
2023-04-30T13:13:55.930Z,30.06
2023-04-30T13:16:25.021Z,30.34
2023-04-30T13:18:52.382Z,29.20
2023-04-30T13:21:20.746Z,30.04
2023-04-30T13:23:53.582Z,29.54
2023-04-30T13:26:23.350Z,27.99
2023-04-30T13:28:51.198Z,27.74
2023-04-30T13:31:18.687Z,27.67
2023-04-30T13:33:46.011Z,26.84
2023-04-30T13:36:12.994Z,27.51
2023-04-30T13:38:40.594Z,26.38
2023-04-30T13:41:07.888Z,27.97
2023-04-30T13:43:35.036Z,30.35
2023-04-30T13:46:02.412Z,28.94
2023-04-30T13:48:29.638Z,28.32
2023-04-30T13:50:56.744Z,28.35
2023-04-30T13:53:24.279Z,27.75
2023-04-30T13:55:51.399Z,26.16
2023-04-30T13:58:18.992Z,25.80
2023-04-30T14:00:46.718Z,27.52
2023-04-30T14:03:14.440Z,29.07
2023-04-30T14:05:42.483Z,30.67
2023-04-30T14:08:09.750Z,31.82
2023-04-30T14:10:37.843Z,32.97
2023-04-30T14:13:04.955Z,33.02
2023-04-30T14:15:32.741Z,33.98
2023-04-30T14:18:00.638Z,34.59
2023-04-30T14:20:28.034Z,34.81
2023-04-30T14:22:55.308Z,37.12
2023-04-30T14:25:22.454Z,35.70
2023-04-30T14:27:49.548Z,35.91
2023-04-30T14:30:16.570Z,36.61
2023-04-30T14:32:43.504Z,39.01
2023-04-30T14:35:10.555Z,42.36
2023-04-30T14:37:37.767Z,46.52
2023-04-30T14:40:07.951Z,49.36
2023-04-30T14:42:35.592Z,55.19
2023-04-30T14:45:02.887Z,60.38
2023-04-30T14:47:31.011Z,62.43
2023-04-30T14:49:59.045Z,62.48
2023-04-30T14:52:26.002Z,65.76
2023-04-30T14:54:53.095Z,68.54
2023-04-30T14:57:20.024Z,68.45
2023-04-30T14:59:47.728Z,69.98
2023-04-30T15:02:14.857Z,71.85
2023-04-30T15:04:46.135Z,71.23
2023-04-30T15:07:13.339Z,70.71
2023-04-30T15:09:40.290Z,69.53
2023-04-30T15:12:07.554Z,70.22
2023-04-30T15:14:34.765Z,70.66
2023-04-30T15:17:01.871Z,71.33
2023-04-30T15:19:30.039Z,71.29
2023-04-30T15:21:57.029Z,71.60
2023-04-30T15:24:24.053Z,71.55
2023-04-30T15:26:54.432Z,71.59
2023-04-30T15:29:21.590Z,72.71
2023-04-30T15:31:52.035Z,73.37
2023-04-30T15:34:19.938Z,73.85
2023-04-30T15:36:46.985Z,74.87
2023-04-30T15:39:13.992Z,75.71
2023-04-30T15:41:41.214Z,75.43
2023-04-30T15:44:08.113Z,74.93
2023-04-30T15:46:35.114Z,74.42
2023-04-30T15:49:02.130Z,75.76
2023-04-30T15:51:29.381Z,75.54
2023-04-30T15:53:56.518Z,73.98
2023-04-30T15:56:25.905Z,75.63
2023-04-30T15:58:54.056Z,77.58
2023-04-30T16:01:21.169Z,78.95
2023-04-30T16:03:48.699Z,78.51
2023-04-30T16:06:17.184Z,78.12
2023-04-30T16:08:46.396Z,78.90
2023-04-30T16:11:14.293Z,79.33
2023-04-30T16:13:41.947Z,80.10
2023-04-30T16:16:09.125Z,79.62
2023-04-30T16:18:36.275Z,79.70
2023-04-30T16:21:03.381Z,79.07
2023-04-30T16:23:30.608Z,78.01
2023-04-30T16:25:57.476Z,79.87
2023-04-30T16:28:28.241Z,78.98
2023-04-30T16:30:55.758Z,80.07
2023-04-30T16:33:25.039Z,78.32
2023-04-30T16:35:52.439Z,78.59
2023-04-30T16:38:19.313Z,78.91
2023-04-30T16:40:46.465Z,78.98
2023-04-30T16:43:13.605Z,78.75
2023-04-30T16:45:40.626Z,78.31
2023-04-30T16:48:07.827Z,78.75
2023-04-30T16:50:35.746Z,77.90
2023-04-30T16:53:03.004Z,77.47
2023-04-30T16:55:29.983Z,77.15
2023-04-30T16:57:56.969Z,77.01
2023-04-30T17:00:24.154Z,79.29
2023-04-30T17:02:53.241Z,80.17
2023-04-30T17:05:21.367Z,79.56
2023-04-30T17:07:49.519Z,80.70
2023-04-30T17:10:19.005Z,80.35
2023-04-30T17:12:46.357Z,80.75
2023-04-30T17:15:14.058Z,82.09
2023-04-30T17:17:41.671Z,82.20
2023-04-30T17:20:09.720Z,83.68
2023-04-30T17:22:38.352Z,84.27
2023-04-30T17:25:05.629Z,84.73
2023-04-30T17:27:32.808Z,85.22
2023-04-30T17:30:00.231Z,86.15
2023-04-30T17:32:28.061Z,87.82
2023-04-30T17:34:55.004Z,87.15
2023-04-30T17:37:22.757Z,87.26
2023-04-30T17:39:50.303Z,86.84
2023-04-30T17:42:18.207Z,87.01
2023-04-30T17:44:45.843Z,88.17
2023-04-30T17:47:16.154Z,90.03
2023-04-30T17:49:44.087Z,89.91
2023-04-30T17:52:12.177Z,89.93
2023-04-30T17:54:39.466Z,90.21
2023-04-30T17:57:06.666Z,90.77
2023-04-30T17:59:34.267Z,92.26
2023-04-30T18:02:02.816Z,92.65
2023-04-30T18:04:30.369Z,92.77
2023-04-30T18:07:04.767Z,92.47
2023-04-30T18:09:32.657Z,92.90
2023-04-30T18:12:00.730Z,92.38
2023-04-30T18:14:28.156Z,91.79
2023-04-30T18:16:55.441Z,93.53
2023-04-30T18:19:23.053Z,93.21
2023-04-30T18:21:53.228Z,93.37
2023-04-30T18:24:21.446Z,93.03
2023-04-30T18:26:48.627Z,94.25
2023-04-30T18:29:17.685Z,94.32
2023-04-30T18:31:44.942Z,95.09
2023-04-30T18:34:13.199Z,96.09
2023-04-30T18:36:43.050Z,97.00
2023-04-30T18:39:12.488Z,96.21
2023-04-30T18:41:39.649Z,96.06
2023-04-30T18:44:09.634Z,95.99
2023-04-30T18:46:36.695Z,95.86
2023-04-30T18:49:05.482Z,95.58
2023-04-30T18:51:32.508Z,96.65
2023-04-30T18:53:59.937Z,96.42
2023-04-30T18:56:27.502Z,96.13
2023-04-30T18:58:54.435Z,96.58
2023-04-30T19:01:23.224Z,96.43
2023-04-30T19:03:50.793Z,96.69
2023-04-30T19:06:21.311Z,97.05
2023-04-30T19:08:48.828Z,97.11
2023-04-30T19:11:16.543Z,97.19
2023-04-30T19:13:44.886Z,97.47
2023-04-30T19:16:11.955Z,97.51
2023-04-30T19:18:42.149Z,97.50
2023-04-30T19:21:09.523Z,97.69
2023-04-30T19:23:37.142Z,97.81
2023-04-30T19:26:05.208Z,98.14
2023-04-30T19:28:32.572Z,98.24
2023-04-30T19:31:00.249Z,98.15
2023-04-30T19:33:28.593Z,98.21
2023-04-30T19:35:57.199Z,98.45
2023-04-30T19:38:24.585Z,98.52
2023-04-30T19:40:53.704Z,98.53
2023-04-30T19:43:25.744Z,98.37
2023-04-30T19:45:55.425Z,98.60
2023-04-30T19:48:25.802Z,98.63
2023-04-30T19:50:58.265Z,98.74
2023-04-30T19:53:26.179Z,98.48
2023-04-30T19:55:53.967Z,98.72
2023-04-30T19:58:21.966Z,98.86
2023-04-30T20:00:49.855Z,99.03
2023-04-30T20:03:17.961Z,99.18
2023-04-30T20:05:45.689Z,99.23
2023-04-30T20:08:14.095Z,99.23
2023-04-30T20:10:42.056Z,99.36
2023-04-30T20:13:10.248Z,100.00
2023-04-30T20:15:37.689Z,100.00
2023-04-30T20:18:06.560Z,100.00
2023-04-30T20:20:33.933Z,100.00
2023-04-30T20:23:14.327Z,100.00
2023-04-30T20:25:45.496Z,100.00
2023-04-30T20:28:14.115Z,100.00
2023-04-30T20:30:45.244Z,100.00
2023-04-30T20:33:14.161Z,100.00
2023-04-30T20:35:42.360Z,100.00
2023-04-30T20:38:10.009Z,100.00
2023-04-30T20:40:40.251Z,100.00
2023-04-30T20:43:09.510Z,100.00
2023-04-30T20:45:37.056Z,100.00
2023-04-30T20:48:04.640Z,100.00
2023-04-30T20:50:32.177Z,100.00
2023-04-30T20:52:59.207Z,100.00
2023-04-30T20:55:26.873Z,100.00
2023-04-30T20:57:54.455Z,100.00
2023-04-30T21:00:21.717Z,100.00
2023-04-30T21:02:48.994Z,100.00
2023-04-30T21:05:16.184Z,100.00
2023-04-30T21:07:43.025Z,100.00
2023-04-30T21:10:10.108Z,100.00
2023-04-30T21:12:37.109Z,100.00
2023-04-30T21:15:04.553Z,100.00
2023-04-30T21:17:31.922Z,100.00
2023-04-30T21:20:00.557Z,100.00
2023-04-30T21:22:27.843Z,100.00
2023-04-30T21:24:54.794Z,100.00
2023-04-30T21:27:22.258Z,100.00
2023-04-30T21:29:49.294Z,100.00
2023-04-30T21:32:16.822Z,100.00
2023-04-30T21:34:44.246Z,100.00
2023-04-30T21:37:17.141Z,100.00
2023-04-30T21:39:44.457Z,100.00
2023-04-30T21:42:11.395Z,100.00
2023-04-30T21:44:39.950Z,100.00
2023-04-30T21:47:10.570Z,100.00
2023-04-30T21:49:37.580Z,100.00
2023-04-30T21:52:08.077Z,100.00
2023-04-30T21:54:35.067Z,100.00
2023-04-30T21:57:02.683Z,100.00
2023-04-30T21:59:29.760Z,100.00
2023-04-30T22:01:56.804Z,100.00
2023-04-30T22:04:25.381Z,100.00
2023-04-30T22:06:52.839Z,100.00
2023-04-30T22:09:19.894Z,100.00
2023-04-30T22:11:46.832Z,100.00
2023-04-30T22:14:13.992Z,100.00
2023-04-30T22:16:41.245Z,100.00
2023-04-30T22:19:08.193Z,100.00
2023-04-30T22:21:35.205Z,100.00
2023-04-30T22:24:02.661Z,100.00
2023-04-30T22:26:29.590Z,100.00
2023-04-30T22:28:57.238Z,100.00
2023-04-30T22:31:24.687Z,100.00
2023-04-30T22:33:51.662Z,100.00
2023-04-30T22:36:18.842Z,100.00
2023-04-30T22:38:45.782Z,100.00
2023-04-30T22:41:12.828Z,100.00
2023-04-30T22:43:40.135Z,100.00
2023-04-30T22:46:07.455Z,100.00
2023-04-30T22:48:34.457Z,100.00
2023-04-30T22:51:01.452Z,100.00
2023-04-30T22:53:28.791Z,100.00
2023-04-30T22:55:55.835Z,100.00
2023-04-30T22:58:23.476Z,100.00
2023-04-30T23:00:50.373Z,100.00
2023-04-30T23:03:17.625Z,100.00
2023-04-30T23:05:44.890Z,100.00
2023-04-30T23:08:14.911Z,100.00
2023-04-30T23:10:44.248Z,100.00
2023-04-30T23:13:11.852Z,100.00
2023-04-30T23:15:38.759Z,100.00
2023-04-30T23:18:06.588Z,100.00
2023-04-30T23:20:33.630Z,100.00
2023-04-30T23:23:00.566Z,100.00
2023-04-30T23:25:27.451Z,100.00
2023-04-30T23:27:54.745Z,100.00
2023-04-30T23:30:21.901Z,100.00
2023-04-30T23:32:48.828Z,100.00
2023-04-30T23:35:15.887Z,100.00
2023-04-30T23:37:42.760Z,100.00
2023-04-30T23:40:10.288Z,100.00
2023-04-30T23:42:37.348Z,100.00
2023-04-30T23:45:05.777Z,100.00
2023-04-30T23:47:36.179Z,100.00
2023-04-30T23:50:04.532Z,100.00
2023-04-30T23:52:31.995Z,100.00
2023-04-30T23:54:58.874Z,100.00
2023-04-30T23:57:27.635Z,100.00
2023-04-30T23:59:55.261Z,100.00
